Time;durP1;ratioP1;P1;durP2;ratioP2;P2;SDS_P1;SDS_P2;PMS_P1;PMS_P2;Temp;Humidity;BMP_temperature;BMP_pressure;BME280_temperature;BME280_humidity;BME280_pressure;Samples;Min_cycle;Max_cycle;Signal;HPM_P1;HPM_P2
2023/09/10 00:01:13;;;;;;;0.35;0.35;;;17.60;99.90;;;;;;5093122;28;20055;-63
2023/09/10 00:03:39;;;;;;;0.47;0.47;;;17.20;99.90;;;;;;5094296;28;20181;-63
2023/09/10 00:06:06;;;;;;;0.65;0.65;;;17.40;99.90;;;;;;5094209;28;20039;-63
2023/09/10 00:08:34;;;;;;;0.88;0.85;;;17.20;99.90;;;;;;5094174;28;20048;-63
2023/09/10 00:11:01;;;;;;;0.30;0.30;;;17.20;99.90;;;;;;5094090;28;20060;-63
2023/09/10 00:13:27;;;;;;;0.50;0.50;;;17.70;99.90;;;;;;5094124;28;20202;-63
2023/09/10 00:15:54;;;;;;;0.77;0.73;;;17.10;99.90;;;;;;5094096;28;20119;-63
2023/09/10 00:18:20;;;;;;;0.52;0.43;;;17.40;99.90;;;;;;5094060;28;20059;-62
2023/09/10 00:20:46;;;;;;;1.02;0.90;;;17.20;99.90;;;;;;5093972;28;20105;-63
2023/09/10 00:23:13;;;;;;;1.50;0.93;;;17.10;99.90;;;;;;5094159;28;20055;-63
2023/09/10 00:25:38;;;;;;;0.73;0.73;;;17.10;99.90;;;;;;5093844;28;20126;-63
2023/09/10 00:28:04;;;;;;;0.65;0.65;;;17.20;99.90;;;;;;5093909;28;20135;-63
2023/09/10 00:30:30;;;;;;;1.17;1.08;;;17.10;99.90;;;;;;5093834;28;20066;-63
2023/09/10 00:32:55;;;;;;;2.05;0.85;;;17.20;99.90;;;;;;5093496;28;20487;-63
2023/09/10 00:35:21;;;;;;;0.68;0.68;;;17.20;99.90;;;;;;5093703;28;20051;-63
2023/09/10 00:37:47;;;;;;;0.82;0.82;;;16.90;99.90;;;;;;5093684;28;20059;-63
2023/09/10 00:40:13;;;;;;;0.70;0.70;;;17.10;99.90;;;;;;5093805;28;20050;-63
2023/09/10 00:42:38;;;;;;;1.05;0.95;;;17.10;99.90;;;;;;5093610;28;20052;-63
2023/09/10 00:45:06;;;;;;;0.82;0.73;;;17.00;99.90;;;;;;5093430;28;20044;-63
2023/09/10 00:47:32;;;;;;;1.30;1.02;;;17.00;99.90;;;;;;5093521;28;20132;-63
2023/09/10 00:49:58;;;;;;;0.82;0.82;;;16.70;99.90;;;;;;5093426;28;20126;-63
2023/09/10 00:52:27;;;;;;;1.08;0.98;;;16.70;99.90;;;;;;5092998;28;20492;-63
2023/09/10 00:54:53;;;;;;;3.28;1.33;;;16.90;99.90;;;;;;5093263;28;20080;-63
2023/09/10 00:57:19;;;;;;;1.55;1.45;;;17.00;99.90;;;;;;5093521;28;20447;-63
2023/09/10 00:59:45;;;;;;;1.13;1.02;;;16.60;99.90;;;;;;5093227;28;20036;-63
2023/09/10 01:02:13;;;;;;;1.05;1.05;;;16.80;99.90;;;;;;5093176;28;20087;-63
2023/09/10 01:04:40;;;;;;;1.88;0.60;;;16.50;99.90;;;;;;5093030;28;20083;-63
2023/09/10 01:07:06;;;;;;;0.85;0.85;;;16.60;99.90;;;;;;5093010;28;20123;-63
2023/09/10 01:09:32;;;;;;;2.17;1.40;;;16.60;99.90;;;;;;5092887;28;20138;-63
2023/09/10 01:12:12;;;;;;;3.13;1.38;;;16.50;99.90;;;;;;5092717;28;20048;-63
2023/09/10 01:14:50;;;;;;;0.70;0.70;;;16.40;99.90;;;;;;5092787;28;20509;-63
2023/09/10 01:17:47;;;;;;;0.88;0.88;;;16.60;99.90;;;;;;5092992;28;20414;-63
2023/09/10 01:20:44;;;;;;;0.57;0.57;;;16.50;99.90;;;;;;5083134;28;20070;-63
2023/09/10 01:23:25;;;;;;;2.23;1.73;;;17.00;99.90;;;;;;5092759;28;20083;-63
2023/09/10 01:25:51;;;;;;;1.83;1.17;;;16.50;99.90;;;;;;5092743;28;20047;-63
2023/09/10 01:28:17;;;;;;;1.08;1.00;;;16.30;99.90;;;;;;5092739;28;20201;-63
2023/09/10 01:30:43;;;;;;;1.52;1.15;;;16.90;99.90;;;;;;5092639;28;20126;-63
2023/09/10 01:33:18;;;;;;;0.98;0.88;;;16.70;99.90;;;;;;5092661;28;20151;-63
2023/09/10 01:35:53;;;;;;;0.63;0.63;;;16.30;99.90;;;;;;5092704;28;20044;-63
2023/09/10 01:38:28;;;;;;;0.75;0.75;;;16.30;99.90;;;;;;5092606;28;20393;-63
2023/09/10 01:41:02;;;;;;;0.68;0.68;;;16.60;99.90;;;;;;5092804;28;20130;-63
2023/09/10 01:43:30;;;;;;;1.02;0.45;;;16.60;99.90;;;;;;5092802;28;20043;-63
2023/09/10 01:45:55;;;;;;;0.90;0.80;;;16.50;99.90;;;;;;5092555;28;20472;-63
2023/09/10 01:48:21;;;;;;;0.43;0.43;;;16.40;99.90;;;;;;5092447;28;20054;-63
2023/09/10 01:50:47;;;;;;;0.75;0.75;;;16.70;99.90;;;;;;5092353;28;20052;-63
2023/09/10 01:53:16;;;;;;;2.38;1.17;;;16.40;99.90;;;;;;5091243;28;20484;-63
2023/09/10 01:55:43;;;;;;;0.47;0.47;;;16.30;99.90;;;;;;5092210;28;20040;-63
2023/09/10 01:58:08;;;;;;;0.55;0.55;;;16.60;99.90;;;;;;5092144;28;20047;-63
2023/09/10 02:00:34;;;;;;;1.33;0.85;;;16.60;99.90;;;;;;5091822;28;20160;-63
2023/09/10 02:03:00;;;;;;;1.45;0.95;;;16.40;99.90;;;;;;5092113;28;20086;-63
2023/09/10 02:05:25;;;;;;;1.10;1.02;;;16.70;99.90;;;;;;5092013;28;20047;-63
2023/09/10 02:07:51;;;;;;;1.30;1.20;;;16.50;99.90;;;;;;5091945;28;20434;-63
2023/09/10 02:10:17;;;;;;;;;;;16.10;99.90;;;;;;5092153;28;20545;-63
2023/09/10 02:12:42;;;;;;;1.48;1.20;;;16.10;99.90;;;;;;5091995;28;19919;-63
2023/09/10 02:15:10;;;;;;;0.98;0.80;;;16.40;99.90;;;;;;5091958;28;20032;-62
2023/09/10 02:17:36;;;;;;;1.48;1.02;;;16.10;99.90;;;;;;5092102;28;20051;-63
2023/09/10 02:20:05;;;;;;;1.85;1.13;;;16.10;99.90;;;;;;5092437;28;20059;-63
2023/09/10 02:22:34;;;;;;;1.88;1.02;;;16.40;99.90;;;;;;5091887;28;20055;-62
2023/09/10 02:25:00;;;;;;;3.53;2.05;;;16.40;99.90;;;;;;5091289;28;20052;-62
2023/09/10 02:27:26;;;;;;;1.60;1.20;;;16.50;99.90;;;;;;5091811;28;20052;-62
2023/09/10 02:29:52;;;;;;;0.88;0.60;;;16.20;99.90;;;;;;5091815;28;20499;-62
2023/09/10 02:32:17;;;;;;;0.70;0.70;;;16.00;99.90;;;;;;5091752;28;20127;-62
2023/09/10 02:34:43;;;;;;;0.93;0.90;;;16.20;99.90;;;;;;5091655;28;20047;-63
2023/09/10 02:37:08;;;;;;;;;;;16.20;99.90;;;;;;5092173;28;20173;-62
2023/09/10 02:39:34;;;;;;;0.70;0.70;;;16.20;99.90;;;;;;5091655;28;19919;-62
2023/09/10 02:41:59;;;;;;;;;;;16.20;99.90;;;;;;5092095;28;20527;-62
2023/09/10 02:44:25;;;;;;;1.13;1.02;;;16.10;99.90;;;;;;5091581;28;20028;-62
2023/09/10 02:46:52;;;;;;;;;;;16.00;99.90;;;;;;5092159;28;20048;-62
2023/09/10 02:49:18;;;;;;;6.03;2.25;;;16.10;99.90;;;;;;5091489;28;20367;-63
2023/09/10 02:51:43;;;;;;;;;;;15.80;99.90;;;;;;5092286;28;20054;-63
2023/09/10 02:54:09;;;;;;;0.75;0.75;;;15.70;99.90;;;;;;5091681;28;19923;-63
2023/09/10 02:56:34;;;;;;;;;;;15.90;99.90;;;;;;5091970;28;20123;-63
2023/09/10 02:59:00;;;;;;;0.85;0.68;;;15.90;99.90;;;;;;5091782;28;19920;-62
2023/09/10 03:01:25;;;;;;;;;;;16.20;99.90;;;;;;5092168;28;20431;-62
2023/09/10 03:03:51;;;;;;;1.85;1.33;;;15.90;99.90;;;;;;5091523;28;19979;-63
2023/09/10 03:06:17;;;;;;;0.77;0.77;;;15.80;99.90;;;;;;5091327;28;20044;-63
2023/09/10 03:08:44;;;;;;;;;;;16.10;99.90;;;;;;5091859;28;20483;-63
2023/09/10 03:11:10;;;;;;;;;;;15.90;99.90;;;;;;5091247;28;20437;-63
2023/09/10 03:13:35;;;;;;;1.10;1.00;;;15.30;99.90;;;;;;5091357;28;19924;-63
2023/09/10 03:16:01;;;;;;;0.80;0.80;;;15.60;99.90;;;;;;5091302;28;20440;-63
2023/09/10 03:18:27;;;;;;;;;;;15.90;99.90;;;;;;5091715;28;20071;-63
2023/09/10 03:20:54;;;;;;;0.60;0.60;;;16.20;99.90;;;;;;5091260;28;19928;-62
2023/09/10 03:23:20;;;;;;;0.40;0.40;;;16.10;99.90;;;;;;5091240;28;20048;-62
2023/09/10 03:25:46;;;;;;;1.08;0.88;;;16.10;99.90;;;;;;5091118;28;20090;-63
2023/09/10 03:28:11;;;;;;;0.50;0.50;;;15.70;99.90;;;;;;5091220;28;20079;-63
2023/09/10 03:30:37;;;;;;;0.75;0.50;;;15.80;99.90;;;;;;5091138;28;20055;-63
2023/09/10 03:33:03;;;;;;;;;;;15.70;99.90;;;;;;5091807;28;20048;-63
2023/09/10 03:35:28;;;;;;;1.38;1.27;;;15.80;99.90;;;;;;5093169;28;19993;-62
2023/09/10 03:37:54;;;;;;;;;;;15.90;99.90;;;;;;5095270;28;20040;-62
2023/09/10 03:40:20;;;;;;;0.93;0.93;;;15.40;99.90;;;;;;5094735;28;19927;-63
2023/09/10 03:42:45;;;;;;;0.70;0.70;;;15.80;99.90;;;;;;5094746;28;20135;-63
2023/09/10 03:45:11;;;;;;;;;;;16.00;99.90;;;;;;5095087;28;20047;-63
2023/09/10 03:47:37;;;;;;;0.43;0.43;;;15.80;99.90;;;;;;5094615;28;19994;-63
2023/09/10 03:50:03;;;;;;;0.75;0.75;;;15.50;99.90;;;;;;5094569;28;20100;-63
2023/09/10 03:52:28;;;;;;;;;;;15.70;99.90;;;;;;5095289;28;20138;-62
2023/09/10 03:54:54;;;;;;;0.52;0.40;;;16.10;99.90;;;;;;5094540;28;20287;-62
2023/09/10 03:57:20;;;;;;;0.30;0.30;;;15.70;99.90;;;;;;5094497;28;20043;-62
2023/09/10 03:59:45;;;;;;;;;;;15.80;99.90;;;;;;5094878;28;20048;-62
2023/09/10 04:02:11;;;;;;;0.75;0.75;;;15.90;99.90;;;;;;5094379;28;19920;-62
2023/09/10 04:04:37;;;;;;;1.23;0.60;;;16.00;99.90;;;;;;5094290;28;20139;-63
2023/09/10 04:07:03;;;;;;;0.88;0.88;;;16.00;99.90;;;;;;5094353;28;20405;-63
2023/09/10 04:09:30;;;;;;;;;;;15.40;99.90;;;;;;5094706;28;20484;-63
2023/09/10 04:11:57;;;;;;;0.45;0.45;;;15.50;99.90;;;;;;5094645;28;19927;-63
2023/09/10 04:14:23;;;;;;;1.02;0.93;;;15.90;99.90;;;;;;5094300;28;20052;-62
2023/09/10 04:16:49;;;;;;;0.50;0.50;;;15.60;99.90;;;;;;5094120;28;20040;-62
2023/09/10 04:19:15;;;;;;;0.77;0.75;;;15.20;99.90;;;;;;5094105;28;20050;-62
2023/09/10 04:21:40;;;;;;;;;;;15.70;99.90;;;;;;5094457;28;20078;-62
2023/09/10 04:24:06;;;;;;;0.52;0.52;;;15.90;99.90;;;;;;5093912;28;20358;-62
2023/09/10 04:26:32;;;;;;;;;;;15.80;99.90;;;;;;5094244;28;20051;-62
2023/09/10 04:28:58;;;;;;;1.13;1.02;;;15.70;99.90;;;;;;5093869;28;19930;-63
2023/09/10 04:31:23;;;;;;;0.80;0.50;;;15.30;99.90;;;;;;5093514;28;20573;-63
2023/09/10 04:33:49;;;;;;;0.43;0.43;;;15.70;99.90;;;;;;5093757;28;20052;-62
2023/09/10 04:36:15;;;;;;;;;;;15.80;99.90;;;;;;5094206;28;20591;-62
2023/09/10 04:38:40;;;;;;;1.05;0.57;;;15.40;99.90;;;;;;5093710;28;19947;-62
2023/09/10 04:41:06;;;;;;;;;;;15.80;99.90;;;;;;5094013;28;20067;-62
2023/09/10 04:43:32;;;;;;;0.32;0.32;;;15.40;99.90;;;;;;5093560;28;19953;-63
2023/09/10 04:45:57;;;;;;;;;;;15.50;99.90;;;;;;5093398;28;20037;-62
2023/09/10 04:48:23;;;;;;;0.30;0.30;;;15.80;99.90;;;;;;5093267;28;19924;-62
2023/09/10 04:50:49;;;;;;;;;;;15.60;99.90;;;;;;5093899;28;20365;-62
2023/09/10 04:53:16;;;;;;;0.85;0.70;;;15.30;99.90;;;;;;5093381;28;19998;-62
2023/09/10 04:55:41;;;;;;;0.88;0.82;;;15.60;99.90;;;;;;5093288;28;20505;-63
2023/09/10 04:58:07;;;;;;;0.50;0.50;;;15.10;99.90;;;;;;5092206;28;20080;-62
2023/09/10 05:00:33;;;;;;;;;;;15.50;99.90;;;;;;5093649;28;20123;-62
2023/09/10 05:02:58;;;;;;;0.60;0.60;;;15.40;99.90;;;;;;5093210;28;20248;-62
2023/09/10 05:05:24;;;;;;;;;;;15.40;99.90;;;;;;5093480;28;20035;-62
2023/09/10 05:07:50;;;;;;;2.05;0.40;;;15.30;99.90;;;;;;5091750;28;19920;-62
2023/09/10 05:10:16;;;;;;;0.80;0.80;;;15.30;99.90;;;;;;5092635;28;20532;-62
2023/09/10 05:12:42;;;;;;;;;;;15.40;99.90;;;;;;5092317;28;20048;-63
2023/09/10 05:15:10;;;;;;;1.00;0.63;;;15.60;99.90;;;;;;5092949;28;19920;-62
2023/09/10 05:17:37;;;;;;;0.55;0.55;;;15.40;99.90;;;;;;5092902;28;20056;-62
2023/09/10 05:20:03;;;;;;;1.88;0.90;;;15.20;99.90;;;;;;5092833;28;20048;-63
2023/09/10 05:22:29;;;;;;;0.52;0.52;;;15.20;99.90;;;;;;5092798;28;20062;-62
2023/09/10 05:24:55;;;;;;;0.98;0.90;;;15.00;99.90;;;;;;5092709;28;20123;-62
2023/09/10 05:27:20;;;;;;;;;;;15.20;99.90;;;;;;5093097;28;20043;-62
2023/09/10 05:29:46;;;;;;;0.38;0.38;;;15.20;99.90;;;;;;5092718;28;19932;-62
2023/09/10 05:32:11;;;;;;;;;;;15.70;99.90;;;;;;5092972;28;20058;-62
2023/09/10 05:34:37;;;;;;;2.05;0.80;;;15.30;99.90;;;;;;5092319;28;19928;-62
2023/09/10 05:37:03;;;;;;;;;;;15.50;99.90;;;;;;5093013;28;20087;-62
2023/09/10 05:39:29;;;;;;;1.17;0.68;;;15.70;99.90;;;;;;5092576;28;20441;-62
2023/09/10 05:41:54;;;;;;;;;;;16.00;99.90;;;;;;5093202;28;20051;-62
2023/09/10 05:44:20;;;;;;;0.20;0.20;;;15.80;99.90;;;;;;5092539;28;20360;-62
2023/09/10 05:46:46;;;;;;;;;;;15.70;99.90;;;;;;5092790;28;20100;-63
2023/09/10 05:49:12;;;;;;;0.65;0.65;;;15.80;99.90;;;;;;5092587;28;19927;-63
2023/09/10 05:51:38;;;;;;;0.65;0.65;;;16.00;99.90;;;;;;5092593;28;20046;-63
2023/09/10 05:54:04;;;;;;;0.43;0.43;;;16.10;99.90;;;;;;5092443;28;20040;-64
2023/09/10 05:56:29;;;;;;;;;;;16.00;99.90;;;;;;5092808;28;20036;-63
2023/09/10 05:58:55;;;;;;;0.25;0.25;;;15.90;99.90;;;;;;5091341;28;19935;-63
2023/09/10 06:01:21;;;;;;;;;;;16.20;99.90;;;;;;5092657;28;20044;-63
2023/09/10 06:03:46;;;;;;;0.95;0.88;;;16.20;99.90;;;;;;5092318;28;19926;-63
2023/09/10 06:06:12;;;;;;;;;;;16.40;99.90;;;;;;5092735;28;20036;-63
2023/09/10 06:08:38;;;;;;;0.57;0.57;;;16.20;99.90;;;;;;5092203;28;20432;-63
2023/09/10 06:11:03;;;;;;;;;;;16.30;99.90;;;;;;5092339;28;20094;-63
2023/09/10 06:13:30;;;;;;;3.20;0.50;;;16.60;99.90;;;;;;5092008;28;19931;-63
2023/09/10 06:15:57;;;;;;;0.45;0.45;;;16.50;99.90;;;;;;5092107;28;20052;-63
2023/09/10 06:18:23;;;;;;;0.20;0.20;;;16.40;99.90;;;;;;5092261;28;20490;-63
2023/09/10 06:20:48;;;;;;;0.30;0.30;;;16.30;99.90;;;;;;5092226;28;20139;-62
2023/09/10 06:23:14;;;;;;;;;;;17.00;99.90;;;;;;5092144;28;20052;-63
2023/09/10 06:25:40;;;;;;;0.30;0.30;;;16.60;99.90;;;;;;5091847;28;19990;-62
2023/09/10 06:28:06;;;;;;;;;;;16.90;99.90;;;;;;5092210;28;20479;-63
2023/09/10 06:30:31;;;;;;;0.20;0.20;;;17.00;99.90;;;;;;5091767;28;19920;-63
2023/09/10 06:32:57;;;;;;;;;;;17.20;99.90;;;;;;5092162;28;20085;-63
2023/09/10 06:35:23;;;;;;;0.32;0.32;;;17.10;99.90;;;;;;5091633;28;20403;-63
2023/09/10 06:37:48;;;;;;;;;;;17.10;99.90;;;;;;5092077;28;20388;-63
2023/09/10 06:40:15;;;;;;;0.60;0.57;;;17.40;99.90;;;;;;5091296;28;19924;-63
2023/09/10 06:42:40;;;;;;;1.17;0.98;;;17.40;99.90;;;;;;5091489;28;20492;-63
2023/09/10 06:45:06;;;;;;;1.88;1.55;;;17.30;99.90;;;;;;5091567;28;20044;-63
2023/09/10 06:47:32;;;;;;;0.93;0.93;;;17.60;99.90;;;;;;5091621;28;20499;-63
2023/09/10 06:49:57;;;;;;;;;;;17.80;99.90;;;;;;5091992;28;20538;-63
2023/09/10 06:52:23;;;;;;;0.32;0.32;;;17.90;99.90;;;;;;5091504;28;19935;-63
2023/09/10 06:54:50;;;;;;;0.40;0.40;;;18.00;99.90;;;;;;5091511;28;20039;-63
2023/09/10 06:57:15;;;;;;;0.57;0.57;;;18.10;99.90;;;;;;5091476;28;20047;-63
2023/09/10 06:59:41;;;;;;;2.30;0.50;;;17.80;99.90;;;;;;5089910;28;20055;-63
2023/09/10 07:02:07;;;;;;;0.52;0.52;;;18.10;99.90;;;;;;5091498;28;20063;-63
2023/09/10 07:04:32;;;;;;;0.63;0.63;;;18.30;99.90;;;;;;5091301;28;20048;-63
2023/09/10 07:06:58;;;;;;;0.38;0.38;;;18.40;99.90;;;;;;5091387;28;20131;-63
2023/09/10 07:09:24;;;;;;;0.40;0.40;;;18.20;99.90;;;;;;5091795;28;20126;-64
2023/09/10 07:11:51;;;;;;;0.20;0.20;;;18.70;99.90;;;;;;5095014;28;20117;-64
2023/09/10 07:14:18;;;;;;;0.40;0.40;;;18.80;99.90;;;;;;5095241;28;20132;-64
2023/09/10 07:16:45;;;;;;;0.25;0.25;;;19.00;99.90;;;;;;5095246;28;20036;-63
2023/09/10 07:19:11;;;;;;;0.30;0.30;;;18.80;99.90;;;;;;5095207;28;20055;-63
2023/09/10 07:21:37;;;;;;;0.30;0.30;;;19.20;99.90;;;;;;5095156;28;20052;-63
2023/09/10 07:24:06;;;;;;;0.30;0.30;;;19.20;99.90;;;;;;5095147;28;20452;-63
2023/09/10 07:26:33;;;;;;;0.60;0.60;;;19.20;99.90;;;;;;5095052;28;20095;-64
2023/09/10 07:28:59;;;;;;;0.38;0.38;;;19.60;99.90;;;;;;5095017;28;20087;-63
2023/09/10 07:31:24;;;;;;;0.45;0.30;;;19.80;99.90;;;;;;5094874;28;20079;-63
2023/09/10 07:33:50;;;;;;;1.10;0.43;;;20.00;99.90;;;;;;5094923;28;20043;-63
2023/09/10 07:36:16;;;;;;;0.82;0.82;;;19.70;99.90;;;;;;5094805;28;20478;-64
2023/09/10 07:38:41;;;;;;;0.47;0.47;;;19.90;99.90;;;;;;5094897;28;20040;-64
2023/09/10 07:41:07;;;;;;;0.55;0.55;;;19.90;99.90;;;;;;5094860;28;20502;-64
2023/09/10 07:43:33;;;;;;;0.95;0.90;;;20.10;99.90;;;;;;5094711;28;20092;-64
2023/09/10 07:45:58;;;;;;;0.60;0.60;;;20.50;99.90;;;;;;5095009;28;20040;-63
2023/09/10 07:48:24;;;;;;;0.88;0.85;;;20.30;99.90;;;;;;5094651;28;20837;-64
2023/09/10 07:50:54;;;;;;;0.80;0.80;;;20.50;99.90;;;;;;5094672;28;20074;-63
2023/09/10 07:53:20;;;;;;;0.57;0.57;;;20.50;99.90;;;;;;5094618;28;20089;-63
2023/09/10 07:55:46;;;;;;;0.93;0.93;;;20.60;99.90;;;;;;5094547;28;20130;-63
2023/09/10 07:58:11;;;;;;;1.17;1.02;;;20.50;99.90;;;;;;5094684;28;20157;-64
2023/09/10 08:00:37;;;;;;;0.88;0.88;;;21.10;99.90;;;;;;5094310;28;20047;-63
2023/09/10 08:03:03;;;;;;;1.42;1.10;;;21.00;99.90;;;;;;5094440;28;20081;-63
2023/09/10 08:05:31;;;;;;;1.45;1.35;;;21.10;99.90;;;;;;5094043;28;20597;-63
2023/09/10 08:08:02;;;;;;;0.93;0.80;;;21.20;99.90;;;;;;5094280;28;20052;-63
2023/09/10 08:10:29;;;;;;;0.38;0.38;;;21.20;99.90;;;;;;5094344;28;20087;-63
2023/09/10 08:12:55;;;;;;;1.05;0.80;;;21.30;99.90;;;;;;5093778;28;20048;-64
2023/09/10 08:15:20;;;;;;;0.80;0.60;;;21.60;99.90;;;;;;5094172;28;20048;-63
2023/09/10 08:17:47;;;;;;;0.43;0.43;;;21.40;99.90;;;;;;5094175;28;20048;-63
2023/09/10 08:20:13;;;;;;;1.08;0.80;;;21.30;99.90;;;;;;5094070;28;20075;-64
2023/09/10 08:22:38;;;;;;;1.05;1.02;;;21.40;99.90;;;;;;5092969;28;20107;-63
2023/09/10 08:25:08;;;;;;;1.85;0.63;;;21.20;99.90;;;;;;5093922;28;20040;-63
2023/09/10 08:27:35;;;;;;;0.88;0.88;;;21.80;99.90;;;;;;5094183;28;20052;-63
2023/09/10 08:30:05;;;;;;;0.75;0.63;;;21.80;99.90;;;;;;5094101;28;20048;-63
2023/09/10 08:32:30;;;;;;;1.02;1.02;;;21.90;99.90;;;;;;5093829;28;20044;-63
2023/09/10 08:34:56;;;;;;;1.45;0.85;;;22.20;99.90;;;;;;5093790;28;20051;-63
2023/09/10 08:37:22;;;;;;;0.60;0.60;;;21.70;99.90;;;;;;5093688;28;20097;-63
2023/09/10 08:39:48;;;;;;;3.22;1.30;;;22.30;99.90;;;;;;5092419;28;20071;-63
2023/09/10 08:42:23;;;;;;;1.30;1.20;;;22.30;99.90;;;;;;5093664;28;20048;-62
2023/09/10 08:44:55;;;;;;;1.70;1.25;;;22.50;99.90;;;;;;5093535;28;20048;-63
2023/09/10 08:47:23;;;;;;;1.50;1.05;;;22.70;99.90;;;;;;5093599;28;20123;-63
2023/09/10 08:49:53;;;;;;;1.15;1.13;;;22.90;99.90;;;;;;5093510;28;20139;-62
2023/09/10 08:52:20;;;;;;;1.92;1.42;;;22.80;99.90;;;;;;5093432;28;20131;-63
2023/09/10 08:54:45;;;;;;;1.10;0.73;;;22.90;99.90;;;;;;5093251;28;20087;-63
2023/09/10 08:57:13;;;;;;;2.17;1.85;;;22.90;99.90;;;;;;5093275;28;20562;-63
2023/09/10 08:59:40;;;;;;;1.23;1.13;;;23.10;99.90;;;;;;5093300;28;20052;-63
2023/09/10 09:02:09;;;;;;;2.08;1.23;;;23.20;99.90;;;;;;5093144;28;20515;-62
2023/09/10 09:04:35;;;;;;;1.17;1.08;;;23.50;99.90;;;;;;5093086;28;20044;-63
2023/09/10 09:07:02;;;;;;;0.52;0.43;;;23.60;99.90;;;;;;5093105;28;20074;-63
2023/09/10 09:09:34;;;;;;;1.48;1.23;;;23.40;99.90;;;;;;5093043;28;20094;-63
2023/09/10 09:12:02;;;;;;;1.02;0.95;;;23.40;99.90;;;;;;5093046;28;20044;-63
2023/09/10 09:14:29;;;;;;;1.20;1.10;;;23.80;99.90;;;;;;5092648;28;20488;-63
2023/09/10 09:16:55;;;;;;;1.23;0.98;;;23.50;99.90;;;;;;5092943;28;20126;-63
2023/09/10 09:19:22;;;;;;;1.25;1.15;;;23.80;99.90;;;;;;5092892;28;20467;-63
2023/09/10 09:21:50;;;;;;;1.92;1.75;;;23.80;99.90;;;;;;5092864;28;20137;-63
2023/09/10 09:24:17;;;;;;;1.60;1.27;;;24.10;99.90;;;;;;5092521;28;20527;-63
2023/09/10 09:26:43;;;;;;;1.10;0.88;;;24.20;99.90;;;;;;5092751;28;20052;-63
2023/09/10 09:29:09;;;;;;;0.73;0.73;;;24.30;99.90;;;;;;5092720;28;20048;-63
2023/09/10 09:31:34;;;;;;;1.02;0.95;;;24.60;99.90;;;;;;5092809;28;20124;-64
2023/09/10 09:34:00;;;;;;;1.92;1.15;;;24.30;99.90;;;;;;5092441;28;20472;-63
2023/09/10 09:36:28;;;;;;;0.40;0.40;;;24.60;99.90;;;;;;5092614;28;20578;-63
2023/09/10 09:38:54;;;;;;;6.55;0.80;;;24.60;99.90;;;;;;5092291;28;20506;-62
2023/09/10 09:41:20;;;;;;;1.92;0.98;;;25.10;99.90;;;;;;5092622;28;20058;-63
2023/09/10 09:43:46;;;;;;;0.95;0.95;;;24.60;99.90;;;;;;5092534;28;20044;-63
2023/09/10 09:46:11;;;;;;;0.80;0.80;;;25.00;99.90;;;;;;5092525;28;20226;-63
2023/09/10 09:48:38;;;;;;;0.50;0.50;;;24.80;99.90;;;;;;5092808;28;20090;-63
2023/09/10 09:51:04;;;;;;;1.35;0.60;;;25.30;99.90;;;;;;5092693;28;20055;-62
2023/09/10 09:53:32;;;;;;;0.70;0.70;;;25.20;99.90;;;;;;5092536;28;20496;-63
2023/09/10 09:55:59;;;;;;;0.63;0.52;;;25.30;99.90;;;;;;5092643;28;20048;-63
2023/09/10 09:58:26;;;;;;;1.15;1.15;;;25.40;99.90;;;;;;5092333;28;20040;-63
2023/09/10 10:00:51;;;;;;;0.35;0.35;;;25.20;99.90;;;;;;5092348;28;20036;-63
2023/09/10 10:03:18;;;;;;;1.15;0.80;;;25.50;99.90;;;;;;5092132;28;20048;-62
2023/09/10 10:05:47;;;;;;;0.55;0.55;;;25.80;99.90;;;;;;5092084;28;20400;-63
2023/09/10 10:08:15;;;;;;;0.40;0.40;;;25.50;99.90;;;;;;5092279;28;20479;-63
2023/09/10 10:10:49;;;;;;;1.17;0.73;;;25.90;99.90;;;;;;5092128;28;20454;-62
2023/09/10 10:13:20;;;;;;;0.98;0.98;;;26.00;99.90;;;;;;5092080;28;20097;-62
2023/09/10 10:15:47;;;;;;;0.73;0.63;;;26.40;99.90;;;;;;5092034;28;20040;-62
2023/09/10 10:18:15;;;;;;;0.60;0.60;;;25.90;99.90;;;;;;5091973;28;20799;-63
2023/09/10 10:20:46;;;;;;;0.70;0.70;;;26.00;99.90;;;;;;5091874;28;20051;-63
2023/09/10 10:23:13;;;;;;;0.90;0.70;;;26.00;99.90;;;;;;5091930;28;20048;-62
2023/09/10 10:25:41;;;;;;;0.45;0.45;;;26.10;99.90;;;;;;5091758;28;20055;-63
2023/09/10 10:28:09;;;;;;;0.80;0.80;;;25.80;99.90;;;;;;5091778;28;20044;-63
2023/09/10 10:30:39;;;;;;;0.60;0.60;;;26.10;99.90;;;;;;5091830;28;20058;-63
2023/09/10 10:33:09;;;;;;;0.65;0.63;;;26.10;99.90;;;;;;5091780;28;20052;-63
2023/09/10 10:35:39;;;;;;;0.73;0.65;;;26.40;99.90;;;;;;5091703;28;20044;-63
2023/09/10 10:38:08;;;;;;;1.35;0.70;;;26.30;99.90;;;;;;5091759;28;20052;-63
2023/09/10 10:40:43;;;;;;;0.98;0.98;;;26.60;99.90;;;;;;5091662;28;20150;-62
2023/09/10 10:43:12;;;;;;;0.60;0.55;;;26.70;99.90;;;;;;5091670;28;20044;-63
2023/09/10 10:45:38;;;;;;;1.60;0.85;;;26.90;99.90;;;;;;5094111;28;20125;-63
2023/09/10 10:48:11;;;;;;;9.65;1.75;;;26.70;99.90;;;;;;5095752;28;20044;-63
2023/09/10 10:50:39;;;;;;;0.55;0.55;;;26.60;99.90;;;;;;5095819;28;20048;-63
2023/09/10 10:53:21;;;;;;;0.75;0.75;;;26.70;99.90;;;;;;5095664;28;20052;-63
2023/09/10 10:56:03;;;;;;;0.80;0.80;;;26.80;99.90;;;;;;5095607;28;20040;-62
2023/09/10 10:58:30;;;;;;;0.80;0.80;;;26.90;99.90;;;;;;5095655;28;20106;-63
2023/09/10 11:00:58;;;;;;;0.82;0.70;;;27.00;99.90;;;;;;5095544;28;20052;-63
2023/09/10 11:03:25;;;;;;;1.10;1.00;;;27.10;99.90;;;;;;5095528;28;20519;-63
2023/09/10 11:06:14;;;;;;;0.50;0.50;;;27.00;99.90;;;;;;5095400;28;20132;-63
2023/09/10 11:08:41;;;;;;;0.98;0.88;;;27.20;99.90;;;;;;5095241;28;20044;-63
2023/09/10 11:11:08;;;;;;;1.05;0.98;;;27.10;99.90;;;;;;5094936;28;20573;-63
2023/09/10 11:14:01;;;;;;;0.50;0.50;;;27.40;99.90;;;;;;5095413;28;20098;-63
2023/09/10 11:16:33;;;;;;;0.70;0.70;;;27.40;99.90;;;;;;5095293;28;20050;-63
2023/09/10 11:19:00;;;;;;;0.45;0.45;;;27.40;99.90;;;;;;5095267;28;20048;-63
2023/09/10 11:22:02;;;;;;;1.00;0.98;;;27.70;99.90;;;;;;5095205;28;20088;-63
2023/09/10 11:24:31;;;;;;;0.63;0.60;;;27.50;99.90;;;;;;5082982;28;20063;-63
2023/09/10 11:27:23;;;;;;;0.38;0.38;;;27.80;99.90;;;;;;5095046;28;20060;-63
2023/09/10 11:30:11;;;;;;;0.32;0.32;;;28.00;99.90;;;;;;5095059;28;20075;-64
2023/09/10 11:32:37;;;;;;;0.98;0.95;;;27.50;99.90;;;;;;5095105;28;20056;-63
2023/09/10 11:35:18;;;;;;;1.73;0.98;;;27.90;99.90;;;;;;5095008;28;20048;-63
2023/09/10 11:37:49;;;;;;;0.47;0.47;;;27.90;99.90;;;;;;5094926;28;20108;-63
2023/09/10 11:40:15;;;;;;;2.17;1.30;;;28.00;99.90;;;;;;5094901;28;20127;-63
2023/09/10 11:42:45;;;;;;;0.40;0.40;;;27.90;99.90;;;;;;5094832;28;20056;-63
2023/09/10 11:45:12;;;;;;;3.10;0.82;;;28.00;99.90;;;;;;5094731;28;20040;-63
2023/09/10 11:47:42;;;;;;;0.57;0.57;;;27.90;99.90;;;;;;5093445;28;20445;-63
2023/09/10 11:50:09;;;;;;;0.70;0.63;;;27.90;99.90;;;;;;5094831;28;20054;-63
2023/09/10 11:52:35;;;;;;;0.75;0.75;;;28.40;99.90;;;;;;5094979;28;20059;-63
2023/09/10 11:55:02;;;;;;;0.82;0.82;;;28.00;99.90;;;;;;5094703;28;20040;-63
2023/09/10 11:57:28;;;;;;;0.45;0.45;;;28.20;99.90;;;;;;5094533;28;20043;-62
2023/09/10 11:59:54;;;;;;;0.80;0.68;;;28.00;99.90;;;;;;5094542;28;20044;-63
2023/09/10 12:02:21;;;;;;;0.22;0.22;;;28.00;99.90;;;;;;5094475;28;20059;-63
2023/09/10 12:04:47;;;;;;;0.30;0.30;;;28.30;99.90;;;;;;5094312;28;20055;-64
2023/09/10 12:07:13;;;;;;;1.20;0.73;;;28.10;99.90;;;;;;5094639;28;20048;-63
2023/09/10 12:09:38;;;;;;;0.60;0.60;;;28.40;99.90;;;;;;5094293;28;20056;-63
2023/09/10 12:12:06;;;;;;;1.60;1.45;;;28.60;99.90;;;;;;5094171;28;20056;-64
2023/09/10 12:14:32;;;;;;;3.28;1.00;;;28.00;99.90;;;;;;5093188;28;20373;-63
2023/09/10 12:16:58;;;;;;;1.95;1.30;;;28.10;99.90;;;;;;5094129;28;20093;-63
2023/09/10 12:19:25;;;;;;;3.28;0.82;;;28.50;99.90;;;;;;5094119;28;20423;-63
2023/09/10 12:21:51;;;;;;;0.47;0.47;;;28.10;99.90;;;;;;5094053;28;20126;-64
2023/09/10 12:24:17;;;;;;;1.75;1.33;;;28.00;99.90;;;;;;5094001;28;20469;-64
2023/09/10 12:26:43;;;;;;;0.70;0.68;;;28.10;99.90;;;;;;5093926;28;20048;-64
2023/09/10 12:29:11;;;;;;;2.17;1.63;;;28.20;99.90;;;;;;5093946;28;20122;-65
2023/09/10 12:31:37;;;;;;;1.02;0.70;;;28.20;99.90;;;;;;5093859;28;20058;-63
2023/09/10 12:34:02;;;;;;;0.82;0.82;;;28.30;99.90;;;;;;5093857;28;20130;-63
2023/09/10 12:36:30;;;;;;;0.68;0.68;;;28.70;99.90;;;;;;5093506;28;20056;-63
2023/09/10 12:38:56;;;;;;;0.77;0.77;;;28.80;99.90;;;;;;5093776;28;20051;-63
2023/09/10 12:41:22;;;;;;;0.68;0.68;;;28.50;99.90;;;;;;5092433;28;20051;-64
2023/09/10 12:43:47;;;;;;;1.02;0.82;;;28.60;99.90;;;;;;5092452;28;20051;-62
2023/09/10 12:46:14;;;;;;;0.77;0.77;;;28.40;99.90;;;;;;5093516;28;20048;-63
2023/09/10 12:48:40;;;;;;;0.60;0.60;;;28.60;99.90;;;;;;5093519;28;20102;-63
2023/09/10 12:51:06;;;;;;;0.32;0.30;;;28.70;99.90;;;;;;5093668;28;20040;-62
2023/09/10 12:53:35;;;;;;;0.95;0.90;;;29.00;99.90;;;;;;5093535;28;20518;-63
2023/09/10 12:56:02;;;;;;;0.40;0.40;;;28.50;99.90;;;;;;5092383;28;20453;-63
2023/09/10 12:58:28;;;;;;;0.60;0.40;;;28.80;99.90;;;;;;5093373;28;20052;-64